Time;durP1;ratioP1;P1;durP2;ratioP2;P2;SDS_P1;SDS_P2;PMS_P1;PMS_P2;Temp;Humidity;BMP_temperature;BMP_pressure;BME280_temperature;BME280_humidity;BME280_pressure;Samples;Min_cycle;Max_cycle;Signal;HPM_P1;HPM_P2
2023/08/09 00:00:59;;;;;;;;;;;;;;;19.32;64.16;100195.97;4973161;28;7157;-72
2023/08/09 00:03:24;;;;;;;;;;;;;;;19.28;63.67;100185.53;4950458;28;6788;-72
2023/08/09 00:05:50;;;;;;;;;;;;;;;19.27;63.85;100190.72;4972562;28;6772;-72
2023/08/09 00:08:15;;;;;;;;;;;;;;;19.26;63.62;100188.97;4967012;28;8827;-73
2023/08/09 00:10:41;;;;;;;;;;;;;;;19.26;63.59;100195.03;4971752;28;6776;-72
2023/08/09 00:13:06;;;;;;;;;;;;;;;19.26;64.24;100195.03;4973140;28;6780;-73
2023/08/09 00:15:32;;;;;;;;;;;;;;;19.28;64.12;100190.72;4972988;28;6776;-72
2023/08/09 00:17:58;;;;;;;;;;;;;;;19.29;63.84;100189.00;4962059;28;7059;-72
2023/08/09 00:20:23;;;;;;;;;;;;;;;19.30;64.05;100190.75;4954173;28;6985;-72
2023/08/09 00:22:49;;;;;;;;;;;;;;;19.32;64.05;100180.38;4961630;28;6780;-72
2023/08/09 00:25:16;;;;;;;;;;;;;;;19.35;64.07;100180.41;4971696;28;6797;-73
2023/08/09 00:27:44;;;;;;;;;;;;;;;19.32;64.20;100178.63;4970311;28;6792;-73
2023/08/09 00:30:10;;;;;;;;;;;;;;;19.28;64.40;100172.53;4954101;28;6820;-73
2023/08/09 00:32:37;;;;;;;;;;;;;;;19.25;64.50;100175.13;4971966;28;6795;-73
2023/08/09 00:35:03;;;;;;;;;;;;;;;19.23;64.45;100173.34;4959892;28;6971;-73
2023/08/09 00:37:29;;;;;;;;;;;;;;;19.21;64.49;100175.06;4969021;28;6808;-73
2023/08/09 00:39:55;;;;;;;;;;;;;;;19.19;64.57;100175.06;4972739;28;6804;-73
2023/08/09 00:42:22;;;;;;;;;;;;;;;19.18;64.70;100175.91;4948988;28;7014;-73
2023/08/09 00:44:47;;;;;;;;;;;;;;;19.18;64.78;100178.50;4974656;28;7351;-73
2023/08/09 00:47:13;;;;;;;;;;;;;;;19.19;64.47;100180.25;4966305;28;7178;-72
2023/08/09 00:49:38;;;;;;;;;;;;;;;19.19;65.11;100188.03;4970756;28;7263;-73
2023/08/09 00:52:05;;;;;;;;;;;;;;;19.22;64.91;100187.22;4954745;28;6848;-72
2023/08/09 00:54:30;;;;;;;;;;;;;;;19.19;64.89;100182.84;4962821;28;6807;-73
2023/08/09 00:56:57;;;;;;;;;;;;;;;19.19;64.77;100188.03;4971187;28;6847;-73
2023/08/09 00:59:22;;;;;;;;;;;;;;;19.19;65.24;100182.84;4970599;28;7080;-72
2023/08/09 01:01:48;;;;;;;;;;;;;;;19.19;64.67;100177.66;4972243;28;7009;-72
2023/08/09 01:04:14;;;;;;;;;;;;;;;19.19;65.50;100188.03;4972623;28;6776;-73
2023/08/09 01:07:00;;;;;;;;;;;;;;;19.21;65.37;100194.13;4948323;28;6984;-73
2023/08/09 01:09:38;;;;;;;;;;;;;;;19.22;65.25;100200.19;4956865;28;6850;-72
2023/08/09 01:12:10;;;;;;;;;;;;;;;19.22;65.12;100202.78;4962862;28;6788;-73
2023/08/09 01:14:41;;;;;;;;;;;;;;;19.23;65.61;100205.41;4971715;28;6808;-72
2023/08/09 01:17:09;;;;;;;;;;;;;;;19.26;64.98;100201.94;4952023;28;6796;-72
2023/08/09 01:19:34;;;;;;;;;;;;;;;19.28;65.34;100206.31;4948489;28;7979;-72
2023/08/09 01:22:06;;;;;;;;;;;;;;;19.28;65.45;100203.72;4962871;28;6804;-72
2023/08/09 01:24:32;;;;;;;;;;;;;;;19.29;65.12;100197.66;4956287;28;7354;-73
2023/08/09 01:26:58;;;;;;;;;;;;;;;19.31;65.49;100209.78;4956483;28;6808;-73
2023/08/09 01:29:24;;;;;;;;;;;;;;;19.30;65.20;100211.53;4972620;28;6834;-73
2023/08/09 01:31:50;;;;;;;;;;;;;;;19.29;65.08;100204.59;4954654;28;6863;-73
2023/08/09 01:34:17;;;;;;;;;;;;;;;19.29;65.63;100202.84;4968298;28;6803;-72
2023/08/09 01:36:46;;;;;;;;;;;;;;;19.30;65.73;100195.94;4959674;28;6803;-73
2023/08/09 01:39:17;;;;;;;;;;;;;;;19.31;65.31;100202.00;4961130;28;6938;-72
2023/08/09 01:41:46;;;;;;;;;;;;;;;19.30;65.78;100206.34;4968012;28;6799;-73
2023/08/09 01:44:12;;;;;;;;;;;;;;;19.33;65.06;100200.31;4945603;28;6990;-72
2023/08/09 01:46:39;;;;;;;;;;;;;;;19.32;65.46;100196.81;4953573;28;6800;-73
2023/08/09 01:49:15;;;;;;;;;;;;;;;19.34;65.19;100196.84;4969610;28;6839;-72
2023/08/09 01:51:41;;;;;;;;;;;;;;;19.35;65.22;100186.44;4955658;28;6820;-73
2023/08/09 01:54:08;;;;;;;;;;;;;;;19.37;65.28;100191.66;4972299;28;7113;-73
2023/08/09 01:56:34;;;;;;;;;;;;;;;19.36;65.94;100193.41;4950338;28;6832;-73
2023/08/09 01:59:00;;;;;;;;;;;;;;;19.39;65.81;100189.94;4970760;28;7141;-73
2023/08/09 02:01:26;;;;;;;;;;;;;;;19.39;65.55;100192.53;4957422;28;7275;-73
2023/08/09 02:03:51;;;;;;;;;;;;;;;19.40;65.92;100197.75;4959547;28;6972;-73
2023/08/09 02:06:17;;;;;;;;;;;;;;;19.41;65.49;100203.81;4960254;28;6796;-73
2023/08/09 02:08:43;;;;;;;;;;;;;;;19.42;65.74;100213.38;4957128;28;6792;-73
2023/08/09 02:11:08;;;;;;;;;;;;;;;19.44;65.84;100224.66;4970542;28;7008;-73
2023/08/09 02:13:34;;;;;;;;;;;;;;;19.41;64.70;100222.00;4959179;28;7969;-73
2023/08/09 02:16:03;;;;;;;;;;;;;;;19.28;63.99;100228.84;4970957;28;6792;-72
2023/08/09 02:18:29;;;;;;;;;;;;;;;19.09;64.21;100222.59;4955987;28;6940;-73
2023/08/09 02:20:54;;;;;;;;;;;;;;;18.92;64.03;100225.84;4961944;28;7054;-73
2023/08/09 02:23:20;;;;;;;;;;;;;;;18.76;63.97;100242.97;4957635;28;6821;-72
2023/08/09 02:25:46;;;;;;;;;;;;;;;18.65;64.75;100241.97;4962099;28;6824;-72
2023/08/09 02:28:12;;;;;;;;;;;;;;;18.55;64.81;100253.97;4948661;28;7435;-73
2023/08/09 02:30:37;;;;;;;;;;;;;;;18.44;64.82;100257.28;4966500;28;6779;-73
2023/08/09 02:33:03;;;;;;;;;;;;;;;18.38;64.92;100258.91;4955923;28;6914;-73
2023/08/09 02:35:51;;;;;;;;;;;;;;;18.30;64.84;100259.72;4943228;28;7053;-73
2023/08/09 02:38:16;;;;;;;;;;;;;;;18.25;64.61;100260.47;4966566;28;6907;-74
2023/08/09 02:40:42;;;;;;;;;;;;;;;18.20;64.79;100264.72;4972399;28;7215;-74
2023/08/09 02:43:08;;;;;;;;;;;;;;;18.15;64.81;100270.72;4957238;28;6879;-74
2023/08/09 02:45:33;;;;;;;;;;;;;;;18.11;65.03;100270.66;4972562;28;6863;-74
2023/08/09 02:47:59;;;;;;;;;;;;;;;18.07;64.75;100272.34;4962300;28;6788;-73
2023/08/09 02:50:24;;;;;;;;;;;;;;;18.01;64.76;100272.22;4958934;28;7022;-73
2023/08/09 02:52:50;;;;;;;;;;;;;;;17.97;64.83;100278.19;4945446;28;7205;-74
2023/08/09 02:55:17;;;;;;;;;;;;;;;17.92;64.42;100270.34;4966843;28;7333;-73
2023/08/09 02:57:42;;;;;;;;;;;;;;;17.86;64.47;100281.47;4965887;28;6819;-74
2023/08/09 03:00:08;;;;;;;;;;;;;;;17.83;64.80;100281.44;4958899;28;6847;-74
2023/08/09 03:02:34;;;;;;;;;;;;;;;17.79;64.44;100284.84;4975100;28;12760;-74
2023/08/09 03:05:01;;;;;;;;;;;;;;;17.76;64.71;100285.66;4974886;28;6852;-73
2023/08/09 03:07:27;;;;;;;;;;;;;;;17.75;65.13;100283.91;4971353;28;6819;-74
2023/08/09 03:09:53;;;;;;;;;;;;;;;17.73;65.24;100284.72;4962055;28;7328;-74
2023/08/09 03:12:19;;;;;;;;;;;;;;;17.73;64.98;100284.72;4956906;28;6883;-74
2023/08/09 03:14:44;;;;;;;;;;;;;;;17.73;64.84;100297.69;4959308;28;7769;-73
2023/08/09 03:17:11;;;;;;;;;;;;;;;17.73;65.56;100295.97;4977712;28;6792;-73
2023/08/09 03:19:36;;;;;;;;;;;;;;;17.74;65.20;100299.41;4953390;28;7319;-74
2023/08/09 03:22:02;;;;;;;;;;;;;;;17.76;64.97;100301.19;4957497;28;7093;-73
2023/08/09 03:24:27;;;;;;;;;;;;;;;17.80;65.37;100296.94;4964762;28;7038;-74
2023/08/09 03:26:53;;;;;;;;;;;;;;;17.83;65.16;100299.56;4956758;28;6983;-73
2023/08/09 03:29:18;;;;;;;;;;;;;;;17.88;65.17;100304.84;4971857;28;6808;-74
2023/08/09 03:31:43;;;;;;;;;;;;;;;17.92;65.02;100306.66;4952969;28;7282;-74
2023/08/09 03:34:09;;;;;;;;;;;;;;;17.94;64.92;100299.75;4960063;28;8009;-75
2023/08/09 03:36:34;;;;;;;;;;;;;;;17.98;64.85;100300.69;4946856;28;7673;-74
2023/08/09 03:39:00;;;;;;;;;;;;;;;18.00;65.00;100299.84;4971268;28;7427;-73
2023/08/09 03:41:25;;;;;;;;;;;;;;;18.04;65.09;100311.16;4953437;28;6791;-73
2023/08/09 03:43:51;;;;;;;;;;;;;;;18.08;65.49;100312.09;4966726;28;7194;-74
2023/08/09 03:46:16;;;;;;;;;;;;;;;18.11;64.94;100310.44;4950694;28;7296;-73
2023/08/09 03:48:42;;;;;;;;;;;;;;;18.14;65.48;100312.19;4958713;28;7377;-73
2023/08/09 03:51:07;;;;;;;;;;;;;;;18.14;64.72;100315.66;4958323;28;7297;-74
2023/08/09 03:53:33;;;;;;;;;;;;;;;18.13;64.93;100318.25;4974924;28;7217;-73
2023/08/09 03:55:58;;;;;;;;;;;;;;;18.11;64.90;100320.81;4972655;28;6967;-73
2023/08/09 03:58:24;;;;;;;;;;;;;;;18.11;64.88;100315.63;4967823;28;6983;-73
2023/08/09 04:00:49;;;;;;;;;;;;;;;18.13;64.65;100328.63;4956650;28;6856;-74
2023/08/09 04:03:17;;;;;;;;;;;;;;;18.11;64.54;100327.72;4976158;28;6874;-73
2023/08/09 04:05:42;;;;;;;;;;;;;;;18.10;64.32;100328.53;4974545;28;6995;-75
2023/08/09 04:08:08;;;;;;;;;;;;;;;18.06;65.18;100332.84;4980432;28;6852;-74
2023/08/09 04:10:35;;;;;;;;;;;;;;;18.03;65.22;100341.44;4965983;28;7211;-74
2023/08/09 04:13:00;;;;;;;;;;;;;;;18.00;64.90;100341.31;4958498;28;7358;-74
2023/08/09 04:15:25;;;;;;;;;;;;;;;17.98;65.14;100344.78;4964090;28;6958;-73
2023/08/09 04:17:51;;;;;;;;;;;;;;;17.98;64.92;100347.38;4954010;28;7043;-75
2023/08/09 04:20:16;;;;;;;;;;;;;;;17.99;65.84;100344.78;4975372;28;6800;-74
2023/08/09 04:22:42;;;;;;;;;;;;;;;17.99;65.00;100349.09;4961756;28;6788;-74
2023/08/09 04:25:10;;;;;;;;;;;;;;;18.00;65.02;100353.44;4953398;28;6779;-71
2023/08/09 04:27:36;;;;;;;;;;;;;;;18.00;65.22;100350.84;4957155;28;7018;-72
2023/08/09 04:30:04;;;;;;;;;;;;;;;18.00;65.80;100345.66;4964902;28;7203;-73
2023/08/09 04:32:29;;;;;;;;;;;;;;;17.99;65.66;100349.97;4951866;28;7584;-73
2023/08/09 04:34:54;;;;;;;;;;;;;;;18.01;65.46;100352.59;4978015;28;7309;-73
2023/08/09 04:37:20;;;;;;;;;;;;;;;18.01;65.53;100347.41;4980604;28;7016;-74
2023/08/09 04:39:45;;;;;;;;;;;;;;;18.03;65.95;100356.06;4977470;28;7331;-73
2023/08/09 04:42:11;;;;;;;;;;;;;;;18.07;66.18;100357.91;4981305;28;6970;-72
2023/08/09 04:44:36;;;;;;;;;;;;;;;18.14;66.05;100366.66;4981458;28;7002;-73
2023/08/09 04:47:03;;;;;;;;;;;;;;;18.20;65.72;100364.16;4982189;28;6791;-72
2023/08/09 04:49:28;;;;;;;;;;;;;;;18.24;65.71;100365.06;4981222;28;6811;-72
2023/08/09 04:51:54;;;;;;;;;;;;;;;18.27;66.07;100359.97;4982672;28;7170;-73
2023/08/09 04:54:20;;;;;;;;;;;;;;;18.32;65.61;100372.16;4985333;28;7153;-73
2023/08/09 04:56:46;;;;;;;;;;;;;;;18.39;65.99;100360.13;4963727;28;7007;-74
2023/08/09 04:59:12;;;;;;;;;;;;;;;18.52;66.56;100366.38;4964341;28;7003;-74
2023/08/09 05:01:37;;;;;;;;;;;;;;;18.76;67.29;100374.50;4969712;28;7165;-72
2023/08/09 05:04:03;;;;;;;;;;;;;;;19.03;67.94;100379.22;4964227;28;7119;-72
2023/08/09 05:06:28;;;;;;;;;;;;;;;19.34;67.78;100378.72;4956973;28;7246;-71
2023/08/09 05:08:54;;;;;;;;;;;;;;;19.59;67.44;100387.66;4972596;28;6788;-71
2023/08/09 05:11:19;;;;;;;;;;;;;;;19.74;66.59;100389.56;4970128;28;6855;-71
2023/08/09 05:13:45;;;;;;;;;;;;;;;19.81;65.90;100385.28;4955919;28;6788;-71
2023/08/09 05:16:10;;;;;;;;;;;;;;;19.79;65.00;100384.41;4971166;28;6978;-71
2023/08/09 05:18:36;;;;;;;;;;;;;;;19.75;65.48;100385.22;4960822;28;7158;-71
2023/08/09 05:21:01;;;;;;;;;;;;;;;19.72;65.15;100391.28;4973633;28;6792;-71
2023/08/09 05:23:27;;;;;;;;;;;;;;;19.69;65.23;100392.09;4974646;28;8192;-71
2023/08/09 05:25:52;;;;;;;;;;;;;;;19.69;65.12;100386.03;4972890;28;7773;-71
2023/08/09 05:28:18;;;;;;;;;;;;;;;19.70;65.00;100398.16;4974528;28;6796;-71
2023/08/09 05:30:44;;;;;;;;;;;;;;;19.70;65.01;100392.97;4974302;28;7894;-71
2023/08/09 05:33:09;;;;;;;;;;;;;;;19.71;64.82;100386.94;4972902;28;6808;-71
2023/08/09 05:35:35;;;;;;;;;;;;;;;19.75;65.48;100390.41;4972353;28;6812;-72
2023/08/09 05:38:00;;;;;;;;;;;;;;;19.81;64.94;100390.47;4974083;28;6792;-71
2023/08/09 05:40:26;;;;;;;;;;;;;;;19.88;65.09;100394.88;4955998;28;6811;-71
2023/08/09 05:42:51;;;;;;;;;;;;;;;20.01;65.44;100398.50;4954431;28;7391;-71
2023/08/09 05:45:17;;;;;;;;;;;;;;;20.12;65.42;100396.88;4954379;28;7607;-72
2023/08/09 05:47:43;;;;;;;;;;;;;;;20.21;64.93;100395.22;4943427;28;6973;-71
2023/08/09 05:50:08;;;;;;;;;;;;;;;20.27;64.99;100397.84;4977763;28;6963;-71
2023/08/09 05:52:34;;;;;;;;;;;;;;;20.31;64.32;100396.13;4948374;28;7212;-71
2023/08/09 05:54:59;;;;;;;;;;;;;;;20.36;64.39;100400.50;4979137;28;6976;-71
2023/08/09 05:57:25;;;;;;;;;;;;;;;20.40;64.40;100402.31;4963583;28;7139;-71
2023/08/09 05:59:51;;;;;;;;;;;;;;;20.44;64.24;100408.41;4978297;28;6864;-71
2023/08/09 06:02:17;;;;;;;;;;;;;;;20.50;64.39;100418.00;4969889;28;7114;-71
2023/08/09 06:04:43;;;;;;;;;;;;;;;20.56;63.51;100419.75;4974719;28;6796;-71
2023/08/09 06:07:09;;;;;;;;;;;;;;;20.60;63.68;100429.31;4967911;28;7430;-71
2023/08/09 06:09:34;;;;;;;;;;;;;;;20.64;63.45;100426.75;4956057;28;6999;-72
2023/08/09 06:12:04;;;;;;;;;;;;;;;20.67;63.42;100424.19;4971284;28;7058;-72
2023/08/09 06:14:30;;;;;;;;;;;;;;;20.71;62.75;100421.59;4973419;28;6991;-71
2023/08/09 06:16:56;;;;;;;;;;;;;;;20.73;62.77;100419.88;4967737;28;6959;-71
2023/08/09 06:19:22;;;;;;;;;;;;;;;20.76;62.79;100427.69;4969966;28;6792;-71
2023/08/09 06:21:47;;;;;;;;;;;;;;;20.85;63.19;100430.38;4926469;28;7316;-71
2023/08/09 06:24:13;;;;;;;;;;;;;;;20.95;63.08;100434.78;4953977;28;7669;-71
2023/08/09 06:26:38;;;;;;;;;;;;;;;21.03;62.73;100440.06;4974746;28;6923;-72
2023/08/09 06:29:04;;;;;;;;;;;;;;;21.10;62.72;100446.16;4955699;28;6867;-71
2023/08/09 06:31:29;;;;;;;;;;;;;;;21.16;62.65;100446.22;4965376;28;7543;-72
2023/08/09 06:33:55;;;;;;;;;;;;;;;21.20;62.46;100463.59;4970259;28;7762;-72
2023/08/09 06:36:20;;;;;;;;;;;;;;;21.25;62.14;100460.16;4982790;28;7557;-71
2023/08/09 06:38:46;;;;;;;;;;;;;;;21.32;62.19;100461.91;4983214;28;8054;-71
2023/08/09 06:41:11;;;;;;;;;;;;;;;21.38;62.15;100467.16;4968874;28;7400;-71
2023/08/09 06:43:37;;;;;;;;;;;;;;;21.41;62.04;100464.53;4960238;28;7520;-71
2023/08/09 06:46:02;;;;;;;;;;;;;;;21.45;61.70;100481.97;4982870;28;7496;-71
2023/08/09 06:48:29;;;;;;;;;;;;;;;21.49;61.38;100488.06;4967822;28;7300;-71
2023/08/09 06:51:00;;;;;;;;;;;;;;;21.53;61.37;100483.69;4969235;28;7402;-71
2023/08/09 06:53:26;;;;;;;;;;;;;;;21.53;60.90;100479.38;4978270;28;7892;-71
2023/08/09 06:55:51;;;;;;;;;;;;;;;21.55;60.73;100482.00;4971876;28;7637;-71
2023/08/09 06:58:17;;;;;;;;;;;;;;;21.58;60.35;100489.81;4977324;28;8400;-71
2023/08/09 07:00:45;;;;;;;;;;;;;;;21.54;59.95;100488.94;4957226;28;8076;-71
2023/08/09 07:03:10;;;;;;;;;;;;;;;21.48;59.98;100489.78;4993493;28;7811;-71
2023/08/09 07:05:36;;;;;;;;;;;;;;;21.45;60.04;100489.78;4989529;28;7415;-71
2023/08/09 07:08:01;;;;;;;;;;;;;;;21.49;60.00;100494.13;4991787;28;7543;-71
2023/08/09 07:10:27;;;;;;;;;;;;;;;21.58;60.05;100489.81;4988518;28;7302;-71
2023/08/09 07:12:53;;;;;;;;;;;;;;;21.66;59.94;100498.56;4987874;28;7524;-72
2023/08/09 07:15:19;;;;;;;;;;;;;;;21.74;59.66;100494.28;4973459;28;7378;-71
2023/08/09 07:17:46;;;;;;;;;;;;;;;21.90;59.57;100496.91;4981141;28;6992;-72
2023/08/09 07:20:14;;;;;;;;;;;;;;;22.03;59.43;100495.19;4982369;28;7089;-72
2023/08/09 07:22:44;;;;;;;;;;;;;;;22.18;59.54;100499.56;4992748;28;7423;-72
2023/08/09 07:25:10;;;;;;;;;;;;;;;22.33;58.56;100504.81;4994866;28;7917;-71
2023/08/09 07:27:44;;;;;;;;;;;;;;;22.48;58.60;100513.53;4992653;28;7111;-71
2023/08/09 07:30:11;;;;;;;;;;;;;;;22.57;58.02;100508.34;4990020;28;7295;-72
2023/08/09 07:32:38;;;;;;;;;;;;;;;22.60;57.94;100516.19;4992122;28;7038;-72
2023/08/09 07:35:05;;;;;;;;;;;;;;;22.61;57.80;100510.09;4972068;28;6812;-72
2023/08/09 07:37:31;;;;;;;;;;;;;;;22.64;57.73;100524.03;4976787;28;6873;-72
2023/08/09 07:39:56;;;;;;;;;;;;;;;22.62;57.43;100521.41;4975442;28;6787;-72
2023/08/09 07:42:22;;;;;;;;;;;;;;;22.61;56.54;100527.50;4993548;28;6792;-72
2023/08/09 07:44:47;;;;;;;;;;;;;;;22.57;56.72;100525.78;4976214;28;7183;-72
2023/08/09 07:47:12;;;;;;;;;;;;;;;22.52;56.74;100530.09;4987646;28;7215;-71
2023/08/09 07:49:38;;;;;;;;;;;;;;;22.48;56.44;100526.59;4988160;28;7204;-72
2023/08/09 07:52:04;;;;;;;;;;;;;;;22.47;56.44;100530.06;4992944;28;6868;-72
2023/08/09 07:54:29;;;;;;;;;;;;;;;22.46;56.44;100523.09;4994139;28;6817;-72
2023/08/09 07:56:55;;;;;;;;;;;;;;;22.44;55.74;100530.06;4990638;28;6784;-72
2023/08/09 07:59:21;;;;;;;;;;;;;;;22.41;56.00;100535.31;4994615;28;6780;-72
2023/08/09 08:01:46;;;;;;;;;;;;;;;22.39;56.24;100543.13;4990609;28;6807;-72
2023/08/09 08:04:12;;;;;;;;;;;;;;;22.40;56.15;100541.38;4990157;28;6863;-72
2023/08/09 08:06:38;;;;;;;;;;;;;;;22.40;55.63;100541.38;4994360;28;7319;-72
2023/08/09 08:09:04;;;;;;;;;;;;;;;22.39;55.84;100542.25;4983628;28;7086;-72
2023/08/09 08:11:30;;;;;;;;;;;;;;;22.37;55.19;100541.38;4988616;28;6800;-72
2023/08/09 08:13:56;;;;;;;;;;;;;;;22.38;55.56;100543.13;4983575;28;6982;-72
2023/08/09 08:16:23;;;;;;;;;;;;;;;22.43;55.42;100541.41;4977038;28;7315;-72
2023/08/09 08:18:48;;;;;;;;;;;;;;;22.53;55.90;100545.78;4991162;28;7149;-71
2023/08/09 08:21:14;;;;;;;;;;;;;;;22.71;56.16;100549.28;4981995;28;6812;-71
2023/08/09 08:23:40;;;;;;;;;;;;;;;22.95;56.61;100539.69;4994429;28;7234;-71
2023/08/09 08:26:05;;;;;;;;;;;;;;;23.19;56.18;100546.59;4994818;28;6926;-72
2023/08/09 08:28:30;;;;;;;;;;;;;;;23.42;56.76;100554.44;4974729;28;7229;-71
2023/08/09 08:30:56;;;;;;;;;;;;;;;23.63;55.79;100550.00;4995319;28;7395;-72
2023/08/09 08:33:21;;;;;;;;;;;;;;;23.79;55.41;100555.19;4995393;28;7181;-72
2023/08/09 08:35:48;;;;;;;;;;;;;;;23.85;54.45;100558.63;4985802;28;6969;-72
2023/08/09 08:38:15;;;;;;;;;;;;;;;23.81;53.46;100566.50;4992191;28;7018;-72
2023/08/09 08:40:43;;;;;;;;;;;;;;;23.75;53.37;100569.13;4991617;28;6872;-72
2023/08/09 08:43:08;;;;;;;;;;;;;;;23.70;53.82;100569.16;4994068;28;7280;-72
2023/08/09 08:45:38;;;;;;;;;;;;;;;23.65;53.38;100571.78;4993359;28;6808;-72
2023/08/09 08:48:06;;;;;;;;;;;;;;;23.64;53.13;100575.28;4977683;28;10489;-72
2023/08/09 08:50:37;;;;;;;;;;;;;;;23.74;54.52;100575.25;4994471;28;6808;-72
2023/08/09 08:53:04;;;;;;;;;;;;;;;23.91;54.35;100576.06;4989460;28;6886;-72
2023/08/09 08:55:30;;;;;;;;;;;;;;;24.14;54.86;100575.09;4993572;28;7057;-72
2023/08/09 08:57:56;;;;;;;;;;;;;;;24.44;54.04;100570.56;4993441;28;6864;-72
2023/08/09 09:00:22;;;;;;;;;;;;;;;24.77;53.72;100568.56;4994523;28;6784;-72
2023/08/09 09:02:49;;;;;;;;;;;;;;;25.04;52.56;100568.34;4992807;28;6792;-71
2023/08/09 09:05:18;;;;;;;;;;;;;;;25.32;51.90;100568.97;4990703;28;6799;-72
2023/08/09 09:07:45;;;;;;;;;;;;;;;25.72;51.06;100567.63;4991230;28;7273;-72
2023/08/09 09:10:14;;;;;;;;;;;;;;;25.98;50.03;100574.31;4994441;28;6792;-72
2023/08/09 09:12:39;;;;;;;;;;;;;;;26.06;49.20;100572.47;4985763;28;9067;-71
2023/08/09 09:15:08;;;;;;;;;;;;;;;26.09;48.62;100575.94;4987524;28;8243;-72
2023/08/09 09:17:42;;;;;;;;;;;;;;;26.33;48.65;100585.25;4974879;28;7015;-72
2023/08/09 09:20:21;;;;;;;;;;;;;;;26.84;47.57;100573.06;4996227;28;6808;-72
2023/08/09 09:22:48;;;;;;;;;;;;;;;27.51;46.26;100578.00;4999589;28;6878;-72
2023/08/09 09:25:14;;;;;;;;;;;;;;;28.25;45.87;100570.38;4993959;28;6796;-74
2023/08/09 09:27:40;;;;;;;;;;;;;;;28.87;43.31;100570.66;4997641;28;6792;-75
2023/08/09 09:30:13;;;;;;;;;;;;;;;29.07;43.06;100570.13;4984975;28;7253;-74
2023/08/09 09:32:51;;;;;;;;;;;;;;;29.11;42.02;100568.28;4999796;28;11564;-74
2023/08/09 09:35:20;;;;;;;;;;;;;;;28.92;42.46;100571.41;5001610;28;7252;-74
2023/08/09 09:37:47;;;;;;;;;;;;;;;29.04;41.50;100569.34;4999078;28;6939;-73
2023/08/09 09:40:24;;;;;;;;;;;;;;;29.34;40.51;100574.69;4982342;28;7438;-75
2023/08/09 09:42:54;;;;;;;;;;;;;;;29.30;41.01;100578.34;4993230;28;6820;-74
2023/08/09 09:45:23;;;;;;;;;;;;;;;28.95;41.13;100581.03;5003022;28;6874;-73
2023/08/09 09:47:48;;;;;;;;;;;;;;;28.51;41.74;100584.69;4994288;28;7212;-74
2023/08/09 09:50:14;;;;;;;;;;;;;;;28.57;42.28;100588.94;4998260;28;6790;-74
2023/08/09 09:52:39;;;;;;;;;;;;;;;29.14;42.93;100581.38;4983335;28;7018;-75
2023/08/09 09:55:05;;;;;;;;;;;;;;;30.07;41.89;100593.78;5000844;28;7205;-74
2023/08/09 09:57:33;;;;;;;;;;;;;;;31.03;40.62;100590.69;4998470;28;6803;-74
2023/08/09 10:00:00;;;;;;;;;;;;;;;31.96;39.50;100602.41;4998827;28;6862;-74
2023/08/09 10:02:37;;;;;;;;;;;;;;;32.88;37.85;100600.56;4978707;28;7292;-75
2023/08/09 10:05:03;;;;;;;;;;;;;;;33.73;37.49;100590.69;5002973;28;7018;-75
2023/08/09 10:07:31;;;;;;;;;;;;;;;34.30;34.99;100601.28;4987982;28;6990;-74
2023/08/09 10:10:02;;;;;;;;;;;;;;;34.35;34.25;100601.94;5006190;28;7435;-74
2023/08/09 10:12:28;;;;;;;;;;;;;;;34.61;33.89;100599.81;5001187;28;7086;-74
2023/08/09 10:14:56;;;;;;;;;;;;;;;35.06;32.74;100607.34;4998461;28;7044;-74
2023/08/09 10:17:23;;;;;;;;;;;;;;;35.38;31.31;100601.28;4999874;28;6800;-75
2023/08/09 10:19:50;;;;;;;;;;;;;;;35.33;30.78;100600.66;4993425;28;6788;-74
2023/08/09 10:22:20;;;;;;;;;;;;;;;35.15;28.87;100598.00;5001140;28;6863;-74
2023/08/09 10:24:50;;;;;;;;;;;;;;;34.62;29.08;100609.53;4990872;28;7130;-71
2023/08/09 10:27:59;;;;;;;;;;;;;;;33.61;29.13;100605.41;4999067;28;6812;-71
2023/08/09 10:30:28;;;;;;;;;;;;;;;33.33;30.63;100606.63;4989636;28;7181;-71
2023/08/09 10:32:56;;;;;;;;;;;;;;;33.47;31.36;100608.69;5013338;28;7806;-73
2023/08/09 10:35:44;;;;;;;;;;;;;;;34.10;31.21;100604.94;4988635;28;6788;-74
2023/08/09 10:38:40;;;;;;;;;;;;;;;34.87;30.30;100597.63;4996953;28;6816;-74
2023/08/09 10:41:11;;;;;;;;;;;;;;;35.43;30.99;100593.88;4992957;28;7007;-72
2023/08/09 10:43:37;;;;;;;;;;;;;;;36.00;30.14;100597.91;4977651;28;7371;-72
2023/08/09 10:46:24;;;;;;;;;;;;;;;36.63;29.13;100603.31;4997977;28;6796;-71
2023/08/09 10:48:52;;;;;;;;;;;;;;;37.16;28.34;100594.88;4987706;28;6815;-72
2023/08/09 10:51:20;;;;;;;;;;;;;;;37.59;27.70;100589.53;4992382;28;6974;-71
2023/08/09 10:53:58;;;;;;;;;;;;;;;37.97;26.87;100588.03;5003818;28;6951;-72
2023/08/09 10:56:41;;;;;;;;;;;;;;;38.29;25.63;100594.91;4994361;28;6827;-72
2023/08/09 10:59:13;;;;;;;;;;;;;;;38.12;24.88;100596.91;4997839;28;7498;-72
2023/08/09 11:01:41;;;;;;;;;;;;;;;37.72;24.70;100605.66;4994882;28;6965;-71
2023/08/09 11:04:08;;;;;;;;;;;;;;;37.51;24.77;100610.50;5004583;28;6831;-71
2023/08/09 11:06:39;;;;;;;;;;;;;;;37.22;25.27;100618.50;5001553;28;6816;-72
2023/08/09 11:09:11;;;;;;;;;;;;;;;37.10;26.04;100625.50;4993375;28;6901;-72
2023/08/09 11:11:39;;;;;;;;;;;;;;;37.18;26.77;100628.56;4974687;28;7455;-71
2023/08/09 11:14:05;;;;;;;;;;;;;;;37.56;26.56;100634.28;4987628;28;7618;-72
2023/08/09 11:16:30;;;;;;;;;;;;;;;37.65;25.44;100625.69;4993929;28;8532;-70
2023/08/09 11:19:09;;;;;;;;;;;;;;;37.21;26.37;100636.38;5005370;28;6938;-72
2023/08/09 11:21:41;;;;;;;;;;;;;;;36.89;26.22;100644.47;4992549;28;6812;-72
2023/08/09 11:24:08;;;;;;;;;;;;;;;36.54;26.09;100639.38;4999024;28;6824;-71
2023/08/09 11:26:38;;;;;;;;;;;;;;;36.57;26.38;100639.22;5014588;28;6859;-70
2023/08/09 11:29:06;;;;;;;;;;;;;;;36.95;26.86;100628.09;4986745;28;7672;-71
2023/08/09 11:31:39;;;;;;;;;;;;;;;37.38;26.49;100629.13;4979699;28;7307;-72
2023/08/09 11:34:05;;;;;;;;;;;;;;;37.75;25.97;100618.81;4999508;28;6815;-72
2023/08/09 11:36:32;;;;;;;;;;;;;;;37.93;25.87;100629.28;4994741;28;6849;-71
2023/08/09 11:38:58;;;;;;;;;;;;;;;38.01;25.55;100626.13;4995928;28;6867;-71
2023/08/09 11:41:25;;;;;;;;;;;;;;;37.98;24.92;100632.53;4995631;28;7091;-71
2023/08/09 11:43:53;;;;;;;;;;;;;;;37.86;25.05;100627.97;4983106;28;6922;-72
2023/08/09 11:46:21;;;;;;;;;;;;;;;37.94;24.99;100625.66;5011666;28;6811;-71
2023/08/09 11:48:50;;;;;;;;;;;;;;;38.03;25.38;100627.75;5011553;28;7233;-71
2023/08/09 11:51:18;;;;;;;;;;;;;;;38.12;24.95;100633.47;4991408;28;7477;-71
2023/08/09 11:53:47;;;;;;;;;;;;;;;37.99;24.81;100633.38;4998208;28;7099;-72
2023/08/09 11:56:18;;;;;;;;;;;;;;;37.91;24.77;100636.56;4994964;28;7160;-70
2023/08/09 11:58:46;;;;;;;;;;;;;;;38.02;24.80;100639.44;4998857;28;6868;-71
2023/08/09 12:01:26;;;;;;;;;;;;;;;38.27;24.59;100635.16;4995389;28;7082;-72
2023/08/09 12:03:57;;;;;;;;;;;;;;;37.75;24.40;100636.69;4987301;28;6807;-73
2023/08/09 12:06:50;;;;;;;;;;;;;;;36.85;24.43;100648.28;4990891;28;7364;-72
2023/08/09 12:09:34;;;;;;;;;;;;;;;35.69;25.02;100652.94;4994521;28;7075;-72
2023/08/09 12:12:16;;;;;;;;;;;;;;;34.42;25.96;100652.16;4993373;28;6811;-72
2023/08/09 12:14:47;;;;;;;;;;;;;;;33.37;27.04;100658.69;5005157;28;7474;-71
2023/08/09 12:17:24;;;;;;;;;;;;;;;33.05;28.24;100656.47;4997805;28;7482;-72
2023/08/09 12:20:09;;;;;;;;;;;;;;;33.49;28.42;100654.63;4992058;28;8202;-71
2023/08/09 12:22:36;;;;;;;;;;;;;;;34.21;27.96;100655.81;4988992;28;7799;-72
2023/08/09 12:25:03;;;;;;;;;;;;;;;34.82;27.45;100658.22;4997247;28;8048;-72
2023/08/09 12:27:28;;;;;;;;;;;;;;;35.39;26.50;100654.44;4995623;28;7142;-73
2023/08/09 12:29:54;;;;;;;;;;;;;;;35.35;26.10;100650.25;4995998;28;6998;-72
2023/08/09 12:32:20;;;;;;;;;;;;;;;34.95;26.67;100658.44;4972291;28;8438;-72
2023/08/09 12:34:48;;;;;;;;;;;;;;;34.72;26.35;100657.81;4989422;28;8432;-72
2023/08/09 12:37:14;;;;;;;;;;;;;;;34.61;26.34;100665.47;4991434;28;7309;-72
2023/08/09 12:39:39;;;;;;;;;;;;;;;34.40;26.63;100668.22;4993612;28;7834;-72
2023/08/09 12:42:05;;;;;;;;;;;;;;;34.40;26.67;100675.31;4987030;28;7186;-71
2023/08/09 12:44:31;;;;;;;;;;;;;;;34.39;27.04;100671.81;5006383;28;8372;-72
2023/08/09 12:46:56;;;;;;;;;;;;;;;34.32;26.38;100670.38;4975934;28;7627;-72